Airfield :
LOGIN :

Register | Disclaimer

   EN    FR    IT 

 










Legend :    VFR   Marginal VFR   IFR   Intensive IFR   Very Intensive IFR
Visi :
Ceiling :
>= 8 km
>= 3000ft
5 to 8 km
1000 to 3000 ft
1500m to 5 km
500 to 1000 ft
800 to 1500m
200 to 500 ft
< 800m
< 200 ft
Symbols :   Thunderstorms  Fog  Heavy snow  Heavy precipitations  Wind > 20 kt
SIGMETs :     Misc.  Thunderstorms  Icing  Turbulence  Mountain Waves  Volcanic Ashes






- Airport Elevation : 1496 ft
- IATA code : SBZ


LRSB - Sibiu

CURRENT METAR :
  • 010200Z VRB01KT 8000 BKN066 M04/M04 Q1021

EXPIRED METARs :
  • 010130Z 26003KT 9999 FEW058 SCT066 M04/M04 Q1021
  • 010100Z 25003KT 9999 SCT058 M04/M04 Q1021
  • 010030Z 26003KT 9999 FEW042 SCT056 M03/M03 Q1021
  • 010000Z 30002KT 9000 FEW012 SCT040 BKN054 M02/M03 Q1021
  • 312330Z 35004KT 8000 FEW010 BKN038 M01/M02 Q1022

TAF TAF LRSB
Valid from the 01 at 00:00 until the 02 at 00:00 UTC


312300Z 0100/0124 VRB04KT 9999 BKN040
PROB30
TEMPO 0100/0103 5000 -SN BKN010 OVC035



MET'MAP, your aeronautical weather chart ! - Copyright ORBIFLY December 2007 - Disclaimer

ORBIFLY MET'MAP TEAM :

Programming & Development : Alexandra Zaïnal
Concept & original design : Baudouin d'Aumeries
Assistance for programming : Marc-Olivier Méhu
Technical & hardware support : Manuel Goepfert

Contact : metmap@orbifly.com




SOURCES & CREDITS :

   NOAA